Time;durP1;ratioP1;P1;durP2;ratioP2;P2;SDS_P1;SDS_P2;PMS_P1;PMS_P2;Temp;Humidity;BMP_temperature;BMP_pressure;BME280_temperature;BME280_humidity;BME280_pressure;Samples;Min_cycle;Max_cycle;Signal;HPM_P1;HPM_P2
2022/09/11 00:00:14;;;;;;;28.77;24.67;;;16.20;99.90;;;;;;4958485;28;20225;-85
2022/09/11 00:02:41;;;;;;;28.45;23.75;;;16.20;99.90;;;;;;4938171;29;20194;-85
2022/09/11 00:05:10;;;;;;;24.60;21.15;;;16.30;99.90;;;;;;4925074;29;20232;-87
2022/09/11 00:07:38;;;;;;;27.92;22.27;;;16.20;99.90;;;;;;4919456;29;20585;-85
2022/09/11 00:10:06;;;;;;;28.90;22.88;;;16.10;99.90;;;;;;4942948;29;20218;-85
2022/09/11 00:12:33;;;;;;;27.33;23.58;;;16.10;99.90;;;;;;4923731;29;20198;-85
2022/09/11 00:15:01;;;;;;;28.55;24.60;;;16.00;99.90;;;;;;4940189;29;20194;-86
2022/09/11 00:17:28;;;;;;;28.60;24.20;;;16.10;99.90;;;;;;4924342;29;20205;-85
2022/09/11 00:19:56;;;;;;;24.67;21.60;;;16.10;99.90;;;;;;4937600;29;20583;-85
2022/09/11 00:22:26;;;;;;;25.05;21.65;;;16.00;99.90;;;;;;4920763;29;20201;-86
2022/09/11 00:24:53;;;;;;;24.63;21.13;;;16.00;99.90;;;;;;4941451;29;20237;-87
2022/09/11 00:27:21;;;;;;;26.08;21.00;;;16.00;99.90;;;;;;4943798;29;20202;-85
2022/09/11 00:29:49;;;;;;;26.15;21.33;;;16.00;99.90;;;;;;4929433;29;20229;-85
2022/09/11 00:32:17;;;;;;;31.73;23.17;;;16.00;99.90;;;;;;4923818;29;20227;-85
2022/09/11 00:34:45;;;;;;;27.98;22.65;;;16.00;99.90;;;;;;4920108;29;20198;-85
2022/09/11 00:37:13;;;;;;;29.08;24.15;;;15.90;99.90;;;;;;4924800;29;20206;-85
2022/09/11 00:39:42;;;;;;;28.58;24.05;;;15.90;99.90;;;;;;4937539;29;20569;-85
2022/09/11 00:42:10;;;;;;;28.23;22.95;;;15.90;99.90;;;;;;4939961;29;20207;-85
2022/09/11 00:44:59;;;;;;;25.02;21.33;;;15.80;99.90;;;;;;4919937;29;20198;-85
2022/09/11 00:47:27;;;;;;;21.40;19.10;;;15.80;99.90;;;;;;4928193;29;20212;-85
2022/09/11 00:50:00;;;;;;;24.20;21.00;;;15.80;99.90;;;;;;4949817;28;20591;-85
2022/09/11 00:52:33;;;;;;;26.95;23.13;;;15.70;99.90;;;;;;4941692;29;20203;-86
2022/09/11 00:55:05;;;;;;;31.67;24.48;;;15.70;99.90;;;;;;4931174;29;20209;-86
2022/09/11 00:57:38;;;;;;;31.00;24.15;;;15.70;99.90;;;;;;4924591;29;20261;-85
2022/09/11 01:00:07;;;;;;;28.80;23.80;;;15.70;99.90;;;;;;4923187;29;20231;-87
2022/09/11 01:02:38;;;;;;;29.90;23.15;;;15.70;99.90;;;;;;4945767;29;20205;-85
2022/09/11 01:05:07;;;;;;;27.95;24.02;;;15.70;99.90;;;;;;4918031;29;20710;-85
2022/09/11 01:07:36;;;;;;;29.00;23.30;;;15.70;99.90;;;;;;4935824;29;20202;-86
2022/09/11 01:10:09;;;;;;;29.67;24.95;;;15.70;99.90;;;;;;4967746;28;20232;-85
2022/09/11 01:12:44;;;;;;;28.17;22.38;;;15.60;99.90;;;;;;4936207;29;20198;-86
2022/09/11 01:15:17;;;;;;;29.00;24.35;;;15.60;99.90;;;;;;4929224;29;20543;-85
2022/09/11 01:17:52;;;;;;;31.63;23.50;;;15.70;99.90;;;;;;4955454;28;20205;-85
2022/09/11 01:20:28;;;;;;;32.63;24.67;;;15.70;99.90;;;;;;4964106;28;20233;-85
2022/09/11 01:23:29;;;;;;;30.50;24.50;;;15.70;99.90;;;;;;4936325;29;20197;-85
2022/09/11 01:26:17;;;;;;;32.13;24.05;;;15.70;99.90;;;;;;4920136;29;20224;-85
2022/09/11 01:28:52;;;;;;;30.58;25.05;;;15.70;99.90;;;;;;4926172;29;20206;-85
2022/09/11 01:31:25;;;;;;;32.15;25.92;;;15.60;99.90;;;;;;4934836;29;20228;-85
2022/09/11 01:33:59;;;;;;;27.58;24.15;;;15.60;99.90;;;;;;4925097;29;20226;-85
2022/09/11 01:36:31;;;;;;;25.38;21.33;;;15.70;99.90;;;;;;4955748;28;20564;-85
2022/09/11 01:39:01;;;;;;;25.40;21.13;;;15.70;99.90;;;;;;4935005;29;20204;-85
2022/09/11 01:41:33;;;;;;;26.95;23.20;;;15.70;99.90;;;;;;4933034;29;20576;-86
2022/09/11 01:44:06;;;;;;;26.92;21.95;;;15.70;99.90;;;;;;4946118;29;20194;-86
2022/09/11 01:46:39;;;;;;;33.28;23.30;;;15.70;99.90;;;;;;4929132;29;20229;-85
2022/09/11 01:49:12;;;;;;;26.85;22.30;;;15.80;99.90;;;;;;4956513;28;20201;-86
2022/09/11 01:51:41;;;;;;;30.77;23.17;;;15.80;99.90;;;;;;4929686;29;20199;-86
2022/09/11 01:54:14;;;;;;;30.05;22.58;;;15.80;99.90;;;;;;4932916;29;20202;-85
2022/09/11 01:56:46;;;;;;;26.30;20.23;;;15.70;99.90;;;;;;4929059;29;20209;-85
2022/09/11 01:59:24;;;;;;;22.95;19.08;;;15.70;99.90;;;;;;4930303;29;20205;-85
2022/09/11 02:01:58;;;;;;;24.88;20.73;;;15.70;99.90;;;;;;4927458;29;20206;-86
2022/09/11 02:04:32;;;;;;;25.48;21.67;;;15.80;99.90;;;;;;4929718;29;20204;-85
2022/09/11 02:07:07;;;;;;;26.88;20.77;;;15.80;99.90;;;;;;4955300;28;20227;-85
2022/09/11 02:09:41;;;;;;;23.67;19.73;;;15.80;99.90;;;;;;4927250;29;20214;-85
2022/09/11 02:12:13;;;;;;;26.98;22.52;;;15.80;99.90;;;;;;4927376;29;20205;-86
2022/09/11 02:14:45;;;;;;;28.90;21.77;;;15.80;99.90;;;;;;4919771;29;20213;-85
2022/09/11 02:17:23;;;;;;;26.67;21.15;;;15.90;99.90;;;;;;4938788;29;20194;-85
2022/09/11 02:19:55;;;;;;;29.10;23.60;;;15.80;99.90;;;;;;4923117;29;20602;-86
2022/09/11 02:22:23;;;;;;;28.13;23.75;;;15.80;99.90;;;;;;4932915;29;20202;-86
2022/09/11 02:24:51;;;;;;;27.45;22.02;;;15.90;99.90;;;;;;4941979;29;20690;-85
2022/09/11 02:27:21;;;;;;;28.92;23.20;;;15.90;99.90;;;;;;4924241;29;20221;-85
2022/09/11 02:29:52;;;;;;;28.65;22.05;;;15.80;99.90;;;;;;4921654;29;20225;-85
2022/09/11 02:32:21;;;;;;;30.40;23.95;;;15.70;99.90;;;;;;4923352;29;20209;-85
2022/09/11 02:34:50;;;;;;;32.53;23.70;;;15.70;99.90;;;;;;4931259;29;20203;-85
2022/09/11 02:37:33;;;;;;;32.03;23.48;;;15.70;99.90;;;;;;4952817;28;20202;-87
2022/09/11 02:40:15;;;;;;;29.98;23.30;;;15.70;99.90;;;;;;4918844;29;20218;-85
2022/09/11 02:42:58;;;;;;;30.80;23.30;;;15.70;99.90;;;;;;4924056;29;20202;-85
2022/09/11 02:45:36;;;;;;;25.80;21.50;;;15.70;99.90;;;;;;4953044;28;20222;-85
2022/09/11 02:48:21;;;;;;;27.00;21.95;;;15.70;99.90;;;;;;4920083;29;20198;-86
2022/09/11 02:50:54;;;;;;;25.13;20.88;;;15.70;99.90;;;;;;4947267;28;20233;-85
2022/09/11 02:53:32;;;;;;;25.17;20.17;;;15.70;99.90;;;;;;4925661;29;20715;-85
2022/09/11 02:56:05;;;;;;;28.33;20.85;;;15.70;99.90;;;;;;4927731;29;20198;-85
2022/09/11 02:58:40;;;;;;;28.95;22.38;;;15.80;99.90;;;;;;4929983;29;20210;-85
2022/09/11 03:01:10;;;;;;;26.70;21.52;;;15.70;99.90;;;;;;4933524;29;20218;-85
2022/09/11 03:03:41;;;;;;;25.67;20.95;;;15.70;99.90;;;;;;4915591;29;20218;-85
2022/09/11 03:06:13;;;;;;;30.80;22.83;;;15.70;99.90;;;;;;4920200;29;20602;-85
2022/09/11 03:08:41;;;;;;;28.63;23.45;;;15.70;99.90;;;;;;4924004;29;20202;-85
2022/09/11 03:11:09;;;;;;;27.50;22.88;;;15.80;99.90;;;;;;4921555;29;20230;-86
2022/09/11 03:13:37;;;;;;;27.25;21.83;;;15.70;99.90;;;;;;4932156;29;20569;-86
2022/09/11 03:16:05;;;;;;;30.45;23.73;;;15.80;99.90;;;;;;4928815;29;20658;-85
2022/09/11 03:18:34;;;;;;;33.30;25.55;;;15.80;99.90;;;;;;4932301;29;20218;-85
2022/09/11 03:21:02;;;;;;;33.63;25.67;;;15.70;99.90;;;;;;4934280;29;20221;-85
2022/09/11 03:23:30;;;;;;;34.90;25.73;;;15.60;99.90;;;;;;4932271;29;20210;-85
2022/09/11 03:25:57;;;;;;;32.40;24.67;;;15.60;99.90;;;;;;4928462;29;20202;-86
2022/09/11 03:28:26;;;;;;;34.72;25.98;;;15.60;99.90;;;;;;4931039;29;20213;-85
2022/09/11 03:30:53;;;;;;;33.58;25.63;;;15.70;99.90;;;;;;4932712;29;20222;-86
2022/09/11 03:33:26;;;;;;;36.42;26.92;;;15.60;99.90;;;;;;4949490;29;20665;-86
2022/09/11 03:35:56;;;;;;;38.30;26.48;;;15.60;99.90;;;;;;4926631;29;20201;-86
2022/09/11 03:38:23;;;;;;;38.80;27.40;;;15.60;99.90;;;;;;4946839;29;20201;-85
2022/09/11 03:40:51;;;;;;;38.85;27.95;;;15.60;99.90;;;;;;4932053;29;20228;-85
2022/09/11 03:43:18;;;;;;;38.22;26.98;;;15.50;99.90;;;;;;4929417;29;20209;-85
2022/09/11 03:45:49;;;;;;;40.38;27.33;;;15.60;99.90;;;;;;4956772;28;20224;-85
2022/09/11 03:48:17;;;;;;;41.63;28.45;;;15.60;99.90;;;;;;4960672;28;20230;-85
2022/09/11 03:50:46;;;;;;;38.95;28.42;;;15.60;99.90;;;;;;4930750;29;20222;-85
2022/09/11 03:53:16;;;;;;;39.40;27.42;;;15.60;99.90;;;;;;4931063;29;20204;-85
2022/09/11 03:55:45;;;;;;;40.90;29.15;;;15.60;99.90;;;;;;4921526;29;20202;-85
2022/09/11 03:58:13;;;;;;;38.28;28.40;;;15.50;99.90;;;;;;4917943;29;20209;-85
2022/09/11 04:00:44;;;;;;;39.40;27.30;;;15.50;99.90;;;;;;4919618;29;20221;-82
2022/09/11 04:03:12;;;;;;;38.20;28.40;;;15.60;99.90;;;;;;4913539;29;20210;-82
2022/09/11 04:05:44;;;;;;;43.78;30.13;;;15.70;99.90;;;;;;4925006;29;20703;-82
2022/09/11 04:08:12;;;;;;;45.20;30.48;;;15.70;99.90;;;;;;4931669;29;20721;-82
2022/09/11 04:10:44;;;;;;;46.83;30.30;;;15.70;99.90;;;;;;4939765;29;20221;-82
2022/09/11 04:13:12;;;;;;;44.25;31.33;;;15.80;99.90;;;;;;4948112;28;20209;-82
2022/09/11 04:15:39;;;;;;;47.50;32.22;;;15.80;99.90;;;;;;4935680;29;20208;-82
2022/09/11 04:18:08;;;;;;;45.88;31.67;;;15.80;99.90;;;;;;4935188;29;20186;-82
2022/09/11 04:20:39;;;;;;;49.60;31.90;;;15.90;99.90;;;;;;4920225;29;20233;-82
2022/09/11 04:23:06;;;;;;;46.95;31.75;;;15.90;99.90;;;;;;4922412;29;20694;-82
2022/09/11 04:25:34;;;;;;;46.80;31.20;;;15.90;99.90;;;;;;4920774;29;20209;-82
2022/09/11 04:28:05;;;;;;;46.40;30.15;;;15.90;99.90;;;;;;4929736;29;20240;-82
2022/09/11 04:30:37;;;;;;;43.38;30.42;;;15.90;99.90;;;;;;4922382;29;20226;-82
2022/09/11 04:33:05;;;;;;;51.00;33.65;;;15.90;99.90;;;;;;4924224;29;20198;-82
2022/09/11 04:35:33;;;;;;;48.33;31.98;;;15.90;99.90;;;;;;4926246;29;20702;-82
2022/09/11 04:38:01;;;;;;;38.35;27.58;;;15.90;99.90;;;;;;4919589;29;20198;-82
2022/09/11 04:40:29;;;;;;;48.28;31.85;;;15.90;99.90;;;;;;4942614;29;20230;-82
2022/09/11 04:42:57;;;;;;;47.00;31.33;;;15.90;99.90;;;;;;4926039;29;20558;-82
2022/09/11 04:45:26;;;;;;;51.60;32.65;;;15.90;99.90;;;;;;4923308;29;20685;-83
2022/09/11 04:47:54;;;;;;;47.45;31.92;;;15.90;99.90;;;;;;4940496;29;20225;-82
2022/09/11 04:50:21;;;;;;;50.15;31.38;;;15.80;99.90;;;;;;4926635;29;20709;-82
2022/09/11 04:53:07;;;;;;;48.25;30.95;;;15.70;99.90;;;;;;4931044;29;20198;-82
2022/09/11 04:55:35;;;;;;;46.70;31.17;;;15.70;99.90;;;;;;4946473;28;20207;-82
2022/09/11 04:58:03;;;;;;;54.72;33.67;;;15.70;99.90;;;;;;4931408;29;20756;-82
2022/09/11 05:00:32;;;;;;;48.67;31.77;;;15.70;99.90;;;;;;4935810;29;20229;-82
2022/09/11 05:03:00;;;;;;;50.03;32.20;;;15.50;99.90;;;;;;4929497;29;20193;-81
2022/09/11 05:05:28;;;;;;;51.90;33.40;;;15.60;99.90;;;;;;4934310;29;20209;-81
2022/09/11 05:07:56;;;;;;;48.85;32.28;;;15.70;99.90;;;;;;4939868;29;20717;-81
2022/09/11 05:10:26;;;;;;;50.00;32.55;;;15.80;99.90;;;;;;4934212;29;20715;-81
2022/09/11 05:12:55;;;;;;;46.70;31.40;;;15.80;99.90;;;;;;4952966;29;20193;-81
2022/09/11 05:15:22;;;;;;;54.67;32.60;;;15.80;99.90;;;;;;4936436;29;20228;-81
2022/09/11 05:17:51;;;;;;;45.63;31.58;;;15.80;99.90;;;;;;4935729;29;20202;-81
2022/09/11 05:20:21;;;;;;;48.53;31.33;;;15.80;99.90;;;;;;4932876;29;20222;-81
2022/09/11 05:22:49;;;;;;;47.05;31.67;;;15.90;99.90;;;;;;4936131;29;20203;-81
2022/09/11 05:25:17;;;;;;;46.33;30.23;;;15.90;99.90;;;;;;4936513;29;20202;-81
2022/09/11 05:27:44;;;;;;;47.30;30.83;;;15.90;99.90;;;;;;4935906;29;20214;-81
2022/09/11 05:30:13;;;;;;;47.53;30.17;;;15.90;99.90;;;;;;4930329;29;20223;-81
2022/09/11 05:32:40;;;;;;;47.35;30.67;;;16.00;99.90;;;;;;4921703;29;20207;-81
2022/09/11 05:35:09;;;;;;;49.80;31.27;;;16.00;99.90;;;;;;4936779;29;20212;-81
2022/09/11 05:37:37;;;;;;;45.30;30.85;;;16.00;99.90;;;;;;4933611;29;20199;-81
2022/09/11 05:40:06;;;;;;;45.08;29.70;;;16.00;99.90;;;;;;4937587;29;20222;-81
2022/09/11 05:42:34;;;;;;;44.33;29.90;;;15.90;99.90;;;;;;4930182;29;20202;-81
2022/09/11 05:45:01;;;;;;;43.47;30.15;;;15.90;99.90;;;;;;4924131;29;20207;-81
2022/09/11 05:47:29;;;;;;;40.72;28.15;;;15.90;99.90;;;;;;4929475;29;20217;-81
2022/09/11 05:49:57;;;;;;;46.15;30.50;;;15.90;99.90;;;;;;4944881;29;20210;-81
2022/09/11 05:52:28;;;;;;;45.08;29.48;;;15.90;99.90;;;;;;4912096;29;20206;-81
2022/09/11 05:54:57;;;;;;;45.03;31.40;;;15.90;99.90;;;;;;4956655;29;20210;-81
2022/09/11 05:57:25;;;;;;;42.03;28.88;;;15.90;99.90;;;;;;4958723;28;20674;-81
2022/09/11 05:59:52;;;;;;;42.80;29.33;;;15.90;99.90;;;;;;4926751;29;20241;-81
2022/09/11 06:02:20;;;;;;;37.92;26.80;;;15.90;99.90;;;;;;4936406;29;20212;-81
2022/09/11 06:04:52;;;;;;;42.10;28.20;;;15.90;99.90;;;;;;4931854;29;20206;-81
2022/09/11 06:07:21;;;;;;;44.17;28.77;;;15.90;99.90;;;;;;4936855;29;20213;-81
2022/09/11 06:09:52;;;;;;;40.00;27.60;;;15.90;99.90;;;;;;4936990;29;20202;-81
2022/09/11 06:12:19;;;;;;;38.55;26.20;;;15.90;99.90;;;;;;4950426;29;20205;-81
2022/09/11 06:14:48;;;;;;;42.33;29.10;;;15.90;99.90;;;;;;4951277;29;20190;-81
2022/09/11 06:17:16;;;;;;;42.53;28.75;;;15.90;99.90;;;;;;4934033;29;20202;-81
2022/09/11 06:19:43;;;;;;;47.38;30.35;;;15.80;99.90;;;;;;4938906;29;20225;-81
2022/09/11 06:22:11;;;;;;;43.80;29.13;;;15.90;99.90;;;;;;4932184;29;20226;-81
2022/09/11 06:24:42;;;;;;;46.22;31.10;;;15.90;99.90;;;;;;4934452;29;20214;-81
2022/09/11 06:27:11;;;;;;;49.38;29.77;;;15.90;99.90;;;;;;4934604;29;20205;-81
2022/09/11 06:29:43;;;;;;;50.53;30.80;;;15.80;99.90;;;;;;4935733;29;20231;-80
2022/09/11 06:32:11;;;;;;;48.20;30.75;;;15.70;99.90;;;;;;4962094;28;20203;-80
2022/09/11 06:34:40;;;;;;;49.10;32.10;;;15.70;99.90;;;;;;4930443;29;20291;-80
2022/09/11 06:37:10;;;;;;;49.28;30.20;;;15.80;99.90;;;;;;4936937;29;20206;-80
2022/09/11 06:39:38;;;;;;;69.20;35.47;;;15.70;99.90;;;;;;4959210;29;20227;-80
2022/09/11 06:42:07;;;;;;;69.05;37.13;;;15.50;99.90;;;;;;4949779;29;20197;-81
2022/09/11 06:44:39;;;;;;;59.00;34.83;;;15.60;99.90;;;;;;4933305;29;20207;-80
2022/09/11 06:47:07;;;;;;;57.80;33.85;;;15.50;99.90;;;;;;4931426;29;20199;-81
2022/09/11 06:49:36;;;;;;;63.25;36.42;;;15.70;99.90;;;;;;4959064;28;20222;-81
2022/09/11 06:52:22;;;;;;;65.50;37.58;;;15.70;99.90;;;;;;4944665;29;20205;-81
2022/09/11 06:55:03;;;;;;;60.10;36.17;;;15.80;99.90;;;;;;4943658;29;20194;-81
2022/09/11 06:57:31;;;;;;;64.70;37.03;;;15.90;99.90;;;;;;4926451;29;20205;-81
2022/09/11 07:00:00;;;;;;;60.67;35.00;;;15.90;99.90;;;;;;4964340;28;20229;-81
2022/09/11 07:02:29;;;;;;;67.78;38.83;;;15.90;99.90;;;;;;4943039;29;20198;-81
2022/09/11 07:04:57;;;;;;;60.95;36.90;;;16.00;99.90;;;;;;4959480;28;20547;-81
2022/09/11 07:07:27;;;;;;;65.82;37.78;;;15.90;99.90;;;;;;4924999;29;20209;-81
2022/09/11 07:09:56;;;;;;;70.18;40.67;;;16.00;99.90;;;;;;4927761;29;20237;-81
2022/09/11 07:12:25;;;;;;;66.45;36.63;;;16.10;99.90;;;;;;4957680;28;20210;-81
2022/09/11 07:14:54;;;;;;;66.03;36.70;;;16.10;99.90;;;;;;4957262;28;20198;-81
2022/09/11 07:17:23;;;;;;;74.47;40.95;;;16.20;99.90;;;;;;4929064;29;20679;-81
2022/09/11 07:19:53;;;;;;;77.78;44.65;;;16.20;99.90;;;;;;4939572;29;20218;-81
2022/09/11 07:22:20;;;;;;;70.70;40.75;;;16.20;99.90;;;;;;4962029;28;20197;-81
2022/09/11 07:24:51;;;;;;;71.10;38.75;;;16.20;99.90;;;;;;4925759;29;20199;-81
2022/09/11 07:27:19;;;;;;;77.90;41.17;;;16.10;99.90;;;;;;4939630;29;20701;-81
2022/09/11 07:29:47;;;;;;;69.72;39.72;;;16.10;99.90;;;;;;4934113;29;20698;-81
2022/09/11 07:32:15;;;;;;;71.07;39.05;;;16.10;99.90;;;;;;4956489;28;20207;-81
2022/09/11 07:34:46;;;;;;;75.40;40.58;;;16.10;99.90;;;;;;4923049;29;20198;-81
2022/09/11 07:37:15;;;;;;;71.95;40.00;;;16.20;99.90;;;;;;4951580;28;20591;-81
2022/09/11 07:39:43;;;;;;;68.65;37.45;;;16.10;99.90;;;;;;4931167;29;20220;-81
2022/09/11 07:42:18;;;;;;;71.28;38.58;;;16.20;99.90;;;;;;4956227;28;20216;-81
2022/09/11 07:44:46;;;;;;;75.65;42.25;;;16.20;99.90;;;;;;4956404;28;20690;-81
2022/09/11 07:47:15;;;;;;;70.47;38.88;;;16.20;99.90;;;;;;4933937;29;20209;-81
2022/09/11 07:49:49;;;;;;;60.75;35.78;;;16.30;99.90;;;;;;4937325;29;20234;-83
2022/09/11 07:52:19;;;;;;;56.78;32.75;;;16.20;99.90;;;;;;4925456;29;20225;-83
2022/09/11 07:54:57;;;;;;;56.80;32.25;;;16.20;99.90;;;;;;4949627;28;20201;-83
2022/09/11 07:57:31;;;;;;;53.13;31.85;;;16.20;99.90;;;;;;4942230;28;20206;-83
2022/09/11 08:00:00;;;;;;;48.90;29.20;;;16.20;99.90;;;;;;4920384;29;20222;-83
2022/09/11 08:02:36;;;;;;;44.78;29.02;;;16.30;99.90;;;;;;4937429;29;20197;-83
2022/09/11 08:05:05;;;;;;;37.58;27.15;;;16.30;99.90;;;;;;4922339;29;20577;-83
2022/09/11 08:07:33;;;;;;;38.00;25.05;;;16.20;99.90;;;;;;4915997;29;20210;-83
2022/09/11 08:10:01;;;;;;;35.85;25.52;;;16.30;99.90;;;;;;4934825;29;20217;-83
2022/09/11 08:12:28;;;;;;;32.78;24.95;;;16.30;99.90;;;;;;4916564;29;20668;-83
2022/09/11 08:14:56;;;;;;;36.00;24.63;;;16.40;99.90;;;;;;4917984;29;20198;-83
2022/09/11 08:17:24;;;;;;;36.42;26.27;;;16.20;99.90;;;;;;4917863;29;20209;-83
2022/09/11 08:19:52;;;;;;;37.40;26.08;;;16.30;99.90;;;;;;4905516;29;20214;-83
2022/09/11 08:22:21;;;;;;;42.40;27.42;;;16.40;99.90;;;;;;4901620;29;20210;-80
2022/09/11 08:24:49;;;;;;;37.90;27.02;;;16.40;99.90;;;;;;4929577;29;20199;-80
2022/09/11 08:27:18;;;;;;;35.47;25.42;;;16.40;99.90;;;;;;4923992;29;20202;-81
2022/09/11 08:29:46;;;;;;;35.53;24.58;;;16.40;99.90;;;;;;4910794;29;20234;-81
2022/09/11 08:32:14;;;;;;;33.22;24.25;;;16.50;99.90;;;;;;4909759;29;20199;-81
2022/09/11 08:34:42;;;;;;;35.20;24.00;;;16.40;99.90;;;;;;4912343;29;20579;-80
2022/09/11 08:37:09;;;;;;;34.10;25.13;;;16.50;99.90;;;;;;4928589;29;20221;-81
2022/09/11 08:39:39;;;;;;;33.83;24.63;;;16.50;99.90;;;;;;4916881;29;20214;-80
2022/09/11 08:42:13;;;;;;;37.53;26.13;;;16.40;99.90;;;;;;4927131;29;20205;-80
2022/09/11 08:44:47;;;;;;;32.92;23.50;;;16.40;99.90;;;;;;4943556;29;20190;-80
2022/09/11 08:47:25;;;;;;;34.83;24.75;;;16.40;99.90;;;;;;4932123;29;20565;-80
2022/09/11 08:50:03;;;;;;;33.83;24.73;;;16.50;99.90;;;;;;4930832;29;20226;-80
2022/09/11 08:52:32;;;;;;;32.53;23.75;;;16.50;99.90;;;;;;4940897;29;20784;-82
2022/09/11 08:55:03;;;;;;;33.72;25.40;;;16.50;99.90;;;;;;4936171;29;20201;-82
2022/09/11 08:57:40;;;;;;;34.50;24.63;;;16.40;99.90;;;;;;4933084;29;20206;-82
2022/09/11 09:00:16;;;;;;;36.67;26.52;;;16.40;99.90;;;;;;4936231;29;20221;-82
2022/09/11 09:03:14;;;;;;;34.35;24.77;;;16.40;99.90;;;;;;4934778;29;20577;-83
2022/09/11 09:05:48;;;;;;;33.60;24.60;;;16.50;99.90;;;;;;4916741;29;20205;-83
2022/09/11 09:08:37;;;;;;;33.85;23.20;;;16.40;99.90;;;;;;4918863;29;20695;-83
2022/09/11 09:11:16;;;;;;;35.67;24.48;;;16.30;99.90;;;;;;4957689;28;20225;-83
2022/09/11 09:14:04;;;;;;;33.55;23.80;;;16.30;99.90;;;;;;4924008;29;20198;-83
2022/09/11 09:16:44;;;;;;;37.33;23.83;;;16.40;99.90;;;;;;4957577;28;20210;-83
2022/09/11 09:19:20;;;;;;;33.88;24.25;;;16.50;99.90;;;;;;4957977;28;20190;-83
2022/09/11 09:21:58;;;;;;;31.23;22.33;;;16.60;99.90;;;;;;4925753;29;20194;-82
2022/09/11 09:24:30;;;;;;;32.13;23.02;;;16.70;99.90;;;;;;4914435;29;20229;-82
2022/09/11 09:26:59;;;;;;;36.03;24.45;;;16.60;99.90;;;;;;4923610;29;20221;-82
2022/09/11 09:29:36;;;;;;;34.85;25.30;;;16.50;99.90;;;;;;4924909;29;20221;-82
2022/09/11 09:32:10;;;;;;;38.30;25.70;;;16.50;99.90;;;;;;4933045;29;20686;-82
2022/09/11 09:34:40;;;;;;;36.05;26.23;;;16.60;99.90;;;;;;4932018;29;20216;-82
2022/09/11 09:37:16;;;;;;;44.00;28.30;;;16.60;99.90;;;;;;4931289;29;20229;-82
2022/09/11 09:39:44;;;;;;;43.33;28.40;;;16.60;99.90;;;;;;4930308;29;20768;-83
2022/09/11 09:42:43;;;;;;;41.22;26.23;;;16.70;99.90;;;;;;4932599;29;20213;-83
2022/09/11 09:45:42;;;;;;;43.88;27.58;;;16.70;99.90;;;;;;4937372;29;20194;-83
2022/09/11 09:48:11;;;;;;;48.10;31.65;;;16.70;99.90;;;;;;4916789;29;20199;-82
2022/09/11 09:50:41;;;;;;;52.25;32.30;;;16.70;99.90;;;;;;4926771;29;20230;-82
2022/09/11 09:53:16;;;;;;;48.47;33.13;;;16.80;99.90;;;;;;4934351;29;20212;-83
2022/09/11 09:55:46;;;;;;;42.90;28.77;;;16.90;99.90;;;;;;4926146;29;20199;-82
2022/09/11 09:58:15;;;;;;;41.65;30.52;;;16.80;99.90;;;;;;4930310;29;20596;-85
2022/09/11 10:00:43;;;;;;;44.92;30.88;;;16.80;99.90;;;;;;4930239;29;20229;-85
2022/09/11 10:03:19;;;;;;;44.97;28.95;;;16.80;99.90;;;;;;4931389;29;20204;-85
2022/09/11 10:05:52;;;;;;;48.63;32.30;;;16.90;99.90;;;;;;4923644;29;20197;-85
2022/09/11 10:08:32;;;;;;;48.45;32.00;;;16.80;99.90;;;;;;4924106;29;20209;-85
2022/09/11 10:11:01;;;;;;;50.13;34.50;;;16.90;99.90;;;;;;4944905;29;20221;-85
2022/09/11 10:13:32;;;;;;;49.78;34.00;;;16.90;99.90;;;;;;4953366;29;20208;-85
2022/09/11 10:16:02;;;;;;;51.08;33.97;;;17.00;99.90;;;;;;4934744;29;20202;-85
2022/09/11 10:18:40;;;;;;;54.55;36.80;;;17.00;99.90;;;;;;4926500;29;20209;-85
2022/09/11 10:21:20;;;;;;;48.00;33.35;;;16.90;99.90;;;;;;4920699;29;20218;-85
2022/09/11 10:23:51;;;;;;;52.53;33.95;;;17.00;99.90;;;;;;4930625;29;20195;-85
2022/09/11 10:26:24;;;;;;;55.65;34.47;;;17.00;99.90;;;;;;4937893;29;20210;-85
2022/09/11 10:28:55;;;;;;;51.15;34.45;;;17.10;99.90;;;;;;4950707;29;20206;-85
2022/09/11 10:31:23;;;;;;;47.55;34.45;;;17.10;99.90;;;;;;4944410;29;20225;-85
2022/09/11 10:33:55;;;;;;;49.83;33.72;;;17.00;99.90;;;;;;4933558;29;20221;-85
2022/09/11 10:36:25;;;;;;;49.03;32.70;;;17.20;99.90;;;;;;4930225;29;20213;-85
2022/09/11 10:38:54;;;;;;;51.85;34.78;;;17.20;99.90;;;;;;4924446;29;20206;-85
2022/09/11 10:41:23;;;;;;;51.85;34.05;;;17.20;99.90;;;;;;4930443;29;20568;-85
2022/09/11 10:43:57;;;;;;;49.83;33.50;;;17.20;99.90;;;;;;4926769;29;20199;-85
2022/09/11 10:46:28;;;;;;;47.30;32.13;;;17.30;99.90;;;;;;4926745;29;20201;-85
2022/09/11 10:48:59;;;;;;;44.90;31.52;;;17.40;99.90;;;;;;4931512;29;20202;-85
2022/09/11 10:51:29;;;;;;;46.08;31.90;;;17.50;99.90;;;;;;4929195;29;20710;-85
2022/09/11 10:54:13;;;;;;;48.03;32.85;;;17.40;99.90;;;;;;4924113;29;20229;-85
2022/09/11 10:56:56;;;;;;;46.33;32.50;;;17.40;99.90;;;;;;4931661;29;20207;-85
2022/09/11 10:59:33;;;;;;;47.55;32.03;;;17.40;99.90;;;;;;4953447;28;20229;-85
2022/09/11 11:02:02;;;;;;;47.38;32.83;;;17.40;99.90;;;;;;4924962;29;20213;-86
2022/09/11 11:04:32;;;;;;;40.55;30.20;;;17.50;99.90;;;;;;4923985;29;20221;-85
2022/09/11 11:07:07;;;;;;;46.42;31.92;;;17.60;99.90;;;;;;4922308;29;20210;-85
2022/09/11 11:09:48;;;;;;;41.20;29.98;;;17.50;99.90;;;;;;4924634;29;20222;-85
2022/09/11 11:12:39;;;;;;;45.03;33.22;;;17.60;99.90;;;;;;4927852;29;20217;-85
2022/09/11 11:15:30;;;;;;;49.35;35.28;;;17.60;99.90;;;;;;4946418;29;20193;-85
2022/09/11 11:18:20;;;;;;;41.17;32.70;;;17.70;99.90;;;;;;4930742;29;20197;-85
2022/09/11 11:20:55;;;;;;;42.40;32.47;;;17.70;99.90;;;;;;4930063;29;20226;-85
2022/09/11 11:23:42;;;;;;;43.10;34.10;;;17.60;99.90;;;;;;4939487;29;20205;-85
2022/09/11 11:26:26;;;;;;;44.63;34.10;;;17.60;99.90;;;;;;4932855;29;20205;-85
2022/09/11 11:29:22;;;;;;;40.75;31.13;;;17.50;99.90;;;;;;4926395;29;20197;-85
2022/09/11 11:32:07;;;;;;;39.30;29.63;;;17.50;99.90;;;;;;4942170;29;20229;-85
2022/09/11 11:34:49;;;;;;;36.85;28.35;;;17.70;99.90;;;;;;4934146;29;20209;-85
2022/09/11 11:37:21;;;;;;;38.67;30.55;;;17.60;99.90;;;;;;4930212;29;20203;-85
2022/09/11 11:39:54;;;;;;;41.80;32.25;;;17.70;99.90;;;;;;4928990;29;20225;-85
2022/09/11 11:42:25;;;;;;;40.17;32.13;;;17.70;99.90;;;;;;4930322;29;20209;-85
2022/09/11 11:44:57;;;;;;;42.22;33.42;;;17.70;99.90;;;;;;4948995;29;20190;-85
2022/09/11 11:47:30;;;;;;;39.80;31.50;;;17.70;99.90;;;;;;4933886;29;20210;-85
2022/09/11 11:50:05;;;;;;;39.00;31.58;;;17.60;99.90;;;;;;4924133;29;20218;-85
2022/09/11 11:52:46;;;;;;;37.85;28.92;;;17.70;99.90;;;;;;4933134;29;20205;-85
2022/09/11 11:55:19;;;;;;;36.35;28.95;;;17.70;99.90;;;;;;4954856;28;20201;-85
2022/09/11 11:57:54;;;;;;;35.88;29.73;;;17.70;99.90;;;;;;4919020;29;21133;-85
2022/09/11 12:00:22;;;;;;;35.35;28.58;;;17.80;99.90;;;;;;4922726;29;20217;-85
2022/09/11 12:02:55;;;;;;;36.28;29.52;;;17.80;99.90;;;;;;4916398;29;20210;-85
2022/09/11 12:05:26;;;;;;;35.00;28.45;;;17.60;99.90;;;;;;4937618;29;20214;-85
2022/09/11 12:07:54;;;;;;;35.40;27.98;;;17.70;99.90;;;;;;4931854;29;20202;-85
2022/09/11 12:10:29;;;;;;;33.65;27.63;;;17.80;99.90;;;;;;4951412;28;20226;-85
2022/09/11 12:13:00;;;;;;;33.40;26.50;;;17.90;99.90;;;;;;4917780;29;20202;-85
2022/09/11 12:15:30;;;;;;;31.00;26.42;;;17.90;99.90;;;;;;4932209;29;20206;-85
2022/09/11 12:18:02;;;;;;;31.83;26.58;;;18.10;99.90;;;;;;4931418;29;20574;-85
2022/09/11 12:20:33;;;;;;;30.27;25.45;;;18.40;99.90;;;;;;4927830;29;20226;-85
2022/09/11 12:23:02;;;;;;;32.30;25.63;;;18.60;99.90;;;;;;4922624;29;20213;-85
2022/09/11 12:26:11;;;;;;;33.15;26.20;;;18.80;99.90;;;;;;4945455;29;20209;-85
2022/09/11 12:28:41;;;;;;;28.83;25.20;;;19.00;99.90;;;;;;4942643;29;20213;-85
2022/09/11 12:31:10;;;;;;;27.42;24.23;;;19.00;99.90;;;;;;4928966;29;20221;-85
2022/09/11 12:33:54;;;;;;;27.52;24.10;;;19.10;99.90;;;;;;4929020;29;20198;-85
2022/09/11 12:36:28;;;;;;;28.92;23.88;;;19.00;99.90;;;;;;4932695;29;20206;-85
2022/09/11 12:39:00;;;;;;;29.55;24.08;;;18.80;99.90;;;;;;4932457;29;20202;-85
2022/09/11 12:41:30;;;;;;;30.60;25.33;;;18.80;99.90;;;;;;4928001;29;20202;-85
2022/09/11 12:43:59;;;;;;;29.38;22.92;;;18.80;99.90;;;;;;4924016;29;20207;-85
2022/09/11 12:47:13;;;;;;;27.00;23.42;;;18.80;99.90;;;;;;4923401;29;20210;-85
2022/09/11 12:49:42;;;;;;;28.35;23.08;;;18.90;99.90;;;;;;4938218;29;20222;-85
2022/09/11 12:52:26;;;;;;;28.67;24.23;;;19.20;99.90;;;;;;4927183;29;20222;-85